createdAt,value
2016-10-18T00:00:02.823Z,26.94
2016-10-18T00:00:43.524Z,26.91
2016-10-18T00:01:24.222Z,26.95
2016-10-18T00:02:04.921Z,26.94
2016-10-18T00:02:45.605Z,26.97
2016-10-18T00:03:26.286Z,27
2016-10-18T00:04:06.996Z,26.92
2016-10-18T00:04:47.732Z,26.94
2016-10-18T00:05:28.406Z,26.91
2016-10-18T00:06:09.086Z,26.92
2016-10-18T00:06:49.744Z,27.03
2016-10-18T00:07:30.443Z,26.92
2016-10-18T00:08:11.185Z,26.89
2016-10-18T00:08:51.870Z,26.92
2016-10-18T00:09:32.566Z,26.91
2016-10-18T00:10:13.209Z,26.97
2016-10-18T00:10:53.919Z,26.97
2016-10-18T00:11:34.632Z,26.95
2016-10-18T00:12:15.376Z,26.97
2016-10-18T00:12:56.060Z,26.97
2016-10-18T00:13:36.733Z,26.97
2016-10-18T00:14:17.410Z,26.94
2016-10-18T00:14:58.165Z,26.89
2016-10-18T00:15:38.798Z,26.92
2016-10-18T00:16:19.494Z,26.91
2016-10-18T00:17:00.150Z,26.91
2016-10-18T00:17:40.871Z,26.91
2016-10-18T00:18:21.548Z,26.89
2016-10-18T00:19:02.239Z,26.92
2016-10-18T00:19:42.941Z,26.95
2016-10-18T00:20:23.703Z,26.91
2016-10-18T00:21:04.382Z,26.92
2016-10-18T00:21:45.088Z,26.89
2016-10-18T00:22:25.742Z,26.92
2016-10-18T00:23:06.428Z,26.92
2016-10-18T00:23:47.100Z,26.91
2016-10-18T00:24:27.738Z,26.97
2016-10-18T00:25:08.444Z,26.94
2016-10-18T00:25:49.137Z,26.89
2016-10-18T00:26:29.836Z,26.92
2016-10-18T00:27:10.537Z,26.94
2016-10-18T00:27:51.255Z,26.95
2016-10-18T00:28:31.912Z,26.89
2016-10-18T00:29:12.643Z,27
2016-10-18T00:29:53.339Z,26.91
2016-10-18T00:30:34.082Z,26.94
2016-10-18T00:31:14.758Z,26.94
2016-10-18T00:31:55.418Z,26.94
2016-10-18T00:32:36.094Z,26.92
2016-10-18T00:33:16.770Z,26.91
2016-10-18T00:33:57.428Z,26.91
2016-10-18T00:34:38.150Z,26.94
2016-10-18T00:35:18.862Z,26.95
2016-10-18T00:35:59.536Z,26.92
2016-10-18T00:36:40.257Z,26.95
2016-10-18T00:37:20.923Z,26.88
2016-10-18T00:38:01.657Z,26.92
2016-10-18T00:38:42.419Z,26.89
2016-10-18T00:39:23.116Z,26.92
2016-10-18T00:40:03.791Z,26.92
2016-10-18T00:40:44.425Z,26.92
2016-10-18T00:41:25.149Z,26.91
2016-10-18T00:42:05.862Z,26.95
2016-10-18T00:42:46.550Z,26.95
2016-10-18T00:43:27.256Z,26.95
2016-10-18T00:44:07.919Z,26.92
2016-10-18T00:44:48.562Z,26.92
2016-10-18T00:45:29.283Z,26.92
2016-10-18T00:46:09.961Z,26.88
2016-10-18T00:46:50.621Z,26.88
2016-10-18T00:47:31.294Z,26.89
2016-10-18T00:48:11.979Z,26.94
2016-10-18T00:48:52.689Z,26.89
2016-10-18T00:49:33.348Z,26.92
2016-10-18T00:50:14.047Z,26.95
2016-10-18T00:50:54.757Z,26.89
2016-10-18T00:51:35.441Z,26.91
2016-10-18T00:52:16.099Z,26.94
2016-10-18T00:52:56.805Z,26.88
2016-10-18T00:53:37.476Z,26.92
2016-10-18T00:54:18.148Z,26.91
2016-10-18T00:54:58.825Z,26.91
2016-10-18T00:55:39.538Z,26.92
2016-10-18T00:56:20.181Z,26.92
2016-10-18T00:57:00.887Z,26.89
2016-10-18T00:57:41.616Z,26.94
2016-10-18T00:58:22.276Z,26.91
2016-10-18T00:59:02.969Z,26.94
2016-10-18T00:59:43.651Z,26.92
2016-10-18T01:00:24.334Z,26.87
2016-10-18T01:01:05.019Z,26.89
2016-10-18T01:01:45.812Z,26.94
2016-10-18T01:02:26.488Z,26.94
2016-10-18T01:03:07.151Z,26.95
2016-10-18T01:03:47.840Z,26.94
2016-10-18T01:04:28.564Z,26.91
2016-10-18T01:05:09.233Z,26.89
2016-10-18T01:05:49.938Z,26.91
2016-10-18T01:06:30.628Z,26.91
2016-10-18T01:07:11.317Z,26.94
2016-10-18T01:07:51.990Z,26.92
2016-10-18T01:08:32.688Z,26.91
2016-10-18T01:09:13.379Z,26.91
2016-10-18T01:09:54.081Z,26.87
2016-10-18T01:10:34.810Z,26.94
2016-10-18T01:11:15.471Z,26.92
2016-10-18T01:11:56.180Z,26.94
2016-10-18T01:12:36.871Z,26.88
2016-10-18T01:13:17.618Z,26.94
2016-10-18T01:13:58.319Z,26.84
2016-10-18T01:14:39.027Z,26.88
2016-10-18T01:15:19.736Z,26.88
2016-10-18T01:16:00.466Z,26.88
2016-10-18T01:16:41.112Z,26.94
2016-10-18T01:17:21.803Z,26.95
2016-10-18T01:18:02.501Z,26.87
2016-10-18T01:18:43.159Z,26.84
2016-10-18T01:19:23.866Z,26.94
2016-10-18T01:20:04.517Z,26.91
2016-10-18T01:20:45.205Z,26.91
2016-10-18T01:21:25.847Z,26.92
2016-10-18T01:22:06.595Z,26.94
2016-10-18T01:22:47.298Z,26.91
2016-10-18T01:23:27.980Z,26.91
2016-10-18T01:24:08.684Z,26.92
2016-10-18T01:24:49.394Z,26.95
2016-10-18T01:25:30.088Z,26.92
2016-10-18T01:26:10.742Z,26.87
2016-10-18T01:26:51.466Z,26.87
2016-10-18T01:27:32.190Z,26.91
2016-10-18T01:28:12.849Z,26.95
2016-10-18T01:28:53.549Z,26.91
2016-10-18T01:29:34.204Z,26.89
2016-10-18T01:30:14.879Z,26.88
2016-10-18T01:30:55.580Z,26.94
2016-10-18T01:31:36.276Z,26.94
2016-10-18T01:32:16.936Z,26.89
2016-10-18T01:32:57.654Z,26.94
2016-10-18T01:33:38.327Z,26.94
2016-10-18T01:34:19.000Z,26.88
2016-10-18T01:34:59.730Z,26.92
2016-10-18T01:35:40.453Z,26.92
2016-10-18T01:36:21.146Z,26.92
2016-10-18T01:37:01.842Z,26.91
2016-10-18T01:37:42.539Z,26.87
2016-10-18T01:38:23.193Z,26.91
2016-10-18T01:39:03.840Z,26.94
2016-10-18T01:39:44.524Z,26.91
2016-10-18T01:40:25.222Z,26.91
2016-10-18T01:41:05.864Z,26.87
2016-10-18T01:41:46.554Z,26.91
2016-10-18T01:42:27.206Z,26.88
2016-10-18T01:43:07.923Z,26.88
2016-10-18T01:43:48.574Z,26.89
2016-10-18T01:44:29.233Z,26.91
2016-10-18T01:45:09.919Z,26.94
2016-10-18T01:45:50.642Z,26.92
2016-10-18T01:46:31.332Z,26.94
2016-10-18T01:47:12.079Z,26.91
2016-10-18T01:47:52.712Z,26.92
2016-10-18T01:48:33.403Z,26.91
2016-10-18T01:49:14.123Z,26.92
2016-10-18T01:49:54.841Z,26.88
2016-10-18T01:50:35.559Z,26.92
2016-10-18T01:51:16.277Z,26.87
2016-10-18T01:51:56.979Z,26.92
2016-10-18T01:52:37.683Z,26.91
2016-10-18T01:53:18.392Z,26.82
2016-10-18T01:53:59.078Z,26.87
2016-10-18T01:54:39.754Z,26.88
2016-10-18T01:55:20.460Z,26.89
2016-10-18T01:56:01.203Z,26.82
2016-10-18T01:56:41.853Z,26.89
2016-10-18T01:57:22.575Z,26.91
2016-10-18T01:58:03.252Z,26.91
2016-10-18T01:58:43.953Z,26.89
2016-10-18T01:59:24.677Z,26.91
2016-10-18T02:00:05.353Z,26.91
2016-10-18T02:00:46.079Z,26.89
2016-10-18T02:01:26.793Z,26.89
2016-10-18T02:02:07.479Z,26.92
2016-10-18T02:02:48.134Z,26.92
2016-10-18T02:03:28.843Z,26.91
2016-10-18T02:04:09.514Z,26.91
2016-10-18T02:04:50.207Z,26.87
2016-10-18T02:05:30.880Z,26.94
2016-10-18T02:06:11.598Z,26.92
2016-10-18T02:06:52.288Z,26.88
2016-10-18T02:07:32.978Z,26.91
2016-10-18T02:08:13.635Z,26.89
2016-10-18T02:08:54.323Z,26.88
2016-10-18T02:09:35.005Z,26.94
2016-10-18T02:10:15.687Z,26.89
2016-10-18T02:10:56.329Z,26.87
2016-10-18T02:11:37.017Z,26.87
2016-10-18T02:12:17.744Z,26.89
2016-10-18T02:12:58.452Z,26.92
2016-10-18T02:13:39.166Z,26.89
2016-10-18T02:14:19.844Z,26.95
2016-10-18T02:15:00.528Z,26.89
2016-10-18T02:15:41.218Z,26.94
2016-10-18T02:16:21.864Z,26.91
2016-10-18T02:17:02.544Z,26.88
2016-10-18T02:17:43.256Z,26.91
2016-10-18T02:18:23.909Z,26.91
2016-10-18T02:19:04.592Z,26.92
2016-10-18T02:19:45.291Z,26.89
2016-10-18T02:20:25.995Z,26.87
2016-10-18T02:21:06.700Z,26.88
2016-10-18T02:21:47.402Z,26.87
2016-10-18T02:22:28.075Z,26.91
2016-10-18T02:23:08.715Z,26.92
2016-10-18T02:23:49.380Z,26.91
2016-10-18T02:24:30.100Z,26.89
2016-10-18T02:25:10.811Z,26.92
2016-10-18T02:25:51.454Z,26.91
2016-10-18T02:26:32.137Z,26.91
2016-10-18T02:27:12.851Z,26.92
2016-10-18T02:27:53.506Z,26.89
2016-10-18T02:28:34.237Z,26.87
2016-10-18T02:29:14.873Z,26.92
2016-10-18T02:29:55.637Z,26.87
2016-10-18T02:30:36.346Z,26.87
2016-10-18T02:31:17.019Z,26.89
2016-10-18T02:31:57.717Z,26.89
2016-10-18T02:32:38.440Z,26.92
2016-10-18T02:33:19.126Z,26.89
2016-10-18T02:33:59.766Z,26.89
2016-10-18T02:34:40.469Z,26.88
2016-10-18T02:35:21.201Z,26.88
2016-10-18T02:36:01.881Z,26.92
2016-10-18T02:36:42.598Z,26.82
2016-10-18T02:37:23.252Z,26.89
2016-10-18T02:38:03.949Z,26.91
2016-10-18T02:38:44.675Z,26.88
2016-10-18T02:39:25.365Z,26.92
2016-10-18T02:40:06.013Z,26.82
2016-10-18T02:40:46.685Z,26.85
2016-10-18T02:41:27.408Z,26.85
2016-10-18T02:42:08.065Z,26.89
2016-10-18T02:42:48.746Z,26.91
2016-10-18T02:43:29.416Z,26.85
2016-10-18T02:44:10.116Z,26.85
2016-10-18T02:44:50.808Z,26.82
2016-10-18T02:45:31.566Z,26.89
2016-10-18T02:46:12.261Z,26.81
2016-10-18T02:46:52.946Z,26.87
2016-10-18T02:47:33.622Z,26.77
2016-10-18T02:48:14.310Z,26.82
2016-10-18T02:48:55.018Z,26.85
2016-10-18T02:49:35.724Z,26.91
2016-10-18T02:50:16.428Z,26.87
2016-10-18T02:50:57.134Z,26.91
2016-10-18T02:51:37.830Z,26.87
2016-10-18T02:52:18.515Z,26.85
2016-10-18T02:52:59.194Z,26.91
2016-10-18T02:53:39.913Z,26.89
2016-10-18T02:54:20.599Z,26.89
2016-10-18T02:55:01.266Z,26.87
2016-10-18T02:55:41.942Z,26.87
2016-10-18T02:56:22.646Z,26.87
2016-10-18T02:57:03.336Z,26.88
2016-10-18T02:57:44.065Z,26.91
2016-10-18T02:58:24.796Z,26.91
2016-10-18T02:59:05.503Z,26.88
2016-10-18T02:59:46.172Z,26.91
2016-10-18T03:00:26.891Z,26.84
2016-10-18T03:01:07.544Z,26.91
2016-10-18T03:01:48.259Z,26.81
2016-10-18T03:02:28.942Z,26.85
2016-10-18T03:03:09.638Z,26.91
2016-10-18T03:03:50.315Z,26.89
2016-10-18T03:04:31.026Z,26.88
2016-10-18T03:05:11.765Z,26.89
2016-10-18T03:05:52.417Z,26.89
2016-10-18T03:06:33.135Z,26.88
2016-10-18T03:07:13.791Z,26.85
2016-10-18T03:07:54.481Z,26.84
2016-10-18T03:08:35.164Z,26.82
2016-10-18T03:09:15.852Z,26.89
2016-10-18T03:09:56.533Z,26.87
2016-10-18T03:10:37.223Z,26.89
2016-10-18T03:11:17.905Z,26.89
2016-10-18T03:11:58.635Z,26.84
2016-10-18T03:12:39.334Z,26.91
2016-10-18T03:13:20.012Z,26.82
2016-10-18T03:14:00.723Z,26.87
2016-10-18T03:14:41.437Z,26.84
2016-10-18T03:15:22.114Z,26.84
2016-10-18T03:16:02.819Z,26.84
2016-10-18T03:16:43.485Z,26.81
2016-10-18T03:17:24.122Z,26.89
2016-10-18T03:18:04.778Z,26.88
2016-10-18T03:18:45.487Z,26.88
2016-10-18T03:19:26.225Z,26.82
2016-10-18T03:20:06.925Z,26.84
2016-10-18T03:20:47.598Z,26.88
2016-10-18T03:21:28.302Z,26.84
2016-10-18T03:22:08.987Z,26.89
2016-10-18T03:22:49.680Z,26.84
2016-10-18T03:23:30.342Z,26.8
2016-10-18T03:24:11.070Z,26.88
2016-10-18T03:24:51.817Z,26.88
2016-10-18T03:25:32.462Z,26.84
2016-10-18T03:26:13.117Z,26.84
2016-10-18T03:26:53.769Z,26.91
2016-10-18T03:27:34.470Z,26.82
2016-10-18T03:28:15.180Z,26.82
2016-10-18T03:28:55.873Z,26.82
2016-10-18T03:29:36.549Z,26.84
2016-10-18T03:30:17.246Z,26.89
2016-10-18T03:30:57.937Z,26.81
2016-10-18T03:31:38.649Z,26.81
2016-10-18T03:32:19.338Z,26.81
2016-10-18T03:33:00.017Z,26.81
2016-10-18T03:33:40.693Z,26.76
2016-10-18T03:34:21.393Z,26.81
2016-10-18T03:35:02.116Z,26.84
2016-10-18T03:35:42.808Z,26.82
2016-10-18T03:36:23.507Z,26.8
2016-10-18T03:37:04.224Z,26.82
2016-10-18T03:37:44.861Z,26.84
2016-10-18T03:38:25.598Z,26.81
2016-10-18T03:39:06.330Z,26.82
2016-10-18T03:39:46.988Z,26.81
2016-10-18T03:40:27.676Z,26.84
2016-10-18T03:41:08.386Z,26.77
2016-10-18T03:41:49.085Z,26.85
2016-10-18T03:42:29.769Z,26.82
2016-10-18T03:43:10.461Z,26.84
2016-10-18T03:43:51.122Z,26.82
2016-10-18T03:44:31.816Z,26.81
2016-10-18T03:45:12.460Z,26.8
2016-10-18T03:45:53.156Z,26.8
2016-10-18T03:46:33.881Z,26.76
2016-10-18T03:47:14.578Z,26.87
2016-10-18T03:47:55.232Z,26.87
2016-10-18T03:48:35.864Z,26.82
2016-10-18T03:49:16.530Z,26.85
2016-10-18T03:49:57.236Z,26.82
2016-10-18T03:50:37.878Z,26.8
2016-10-18T03:51:18.558Z,26.84
2016-10-18T03:51:59.264Z,26.81
2016-10-18T03:52:39.961Z,26.8
2016-10-18T03:53:20.667Z,26.85
2016-10-18T03:54:01.347Z,26.85
2016-10-18T03:54:42.037Z,26.85
2016-10-18T03:55:22.680Z,26.84
2016-10-18T03:56:03.394Z,26.85
2016-10-18T03:56:44.106Z,26.77
2016-10-18T03:57:24.806Z,26.85
2016-10-18T03:58:05.472Z,26.81
2016-10-18T03:58:46.179Z,26.84
2016-10-18T03:59:26.899Z,26.82
2016-10-18T04:00:07.580Z,26.81
2016-10-18T04:00:48.259Z,26.85
2016-10-18T04:01:28.983Z,26.84
2016-10-18T04:02:09.649Z,26.81
2016-10-18T04:02:50.364Z,26.82
2016-10-18T04:03:31.093Z,26.87
2016-10-18T04:04:11.790Z,26.84
2016-10-18T04:04:52.463Z,26.85
2016-10-18T04:05:33.197Z,26.82
2016-10-18T04:06:13.877Z,26.85
2016-10-18T04:06:54.564Z,26.82
2016-10-18T04:07:35.225Z,26.81
2016-10-18T04:08:15.928Z,26.85
2016-10-18T04:08:56.622Z,26.84
2016-10-18T04:09:37.300Z,26.84
2016-10-18T04:10:17.946Z,26.84
2016-10-18T04:10:58.665Z,26.85
2016-10-18T04:11:39.325Z,26.77
2016-10-18T04:12:19.987Z,26.87
2016-10-18T04:13:00.638Z,26.8
2016-10-18T04:13:41.330Z,26.84
2016-10-18T04:14:22.023Z,26.81
2016-10-18T04:15:02.711Z,26.81
2016-10-18T04:15:43.420Z,26.8
2016-10-18T04:16:24.123Z,26.8
2016-10-18T04:17:04.803Z,26.84
2016-10-18T04:17:45.440Z,26.84
2016-10-18T04:18:26.106Z,26.82
2016-10-18T04:19:06.803Z,26.81
2016-10-18T04:19:47.504Z,26.84
2016-10-18T04:20:28.210Z,26.81
2016-10-18T04:21:08.878Z,26.81
2016-10-18T04:21:49.580Z,26.82
2016-10-18T04:22:30.285Z,26.84
2016-10-18T04:23:10.983Z,26.82
2016-10-18T04:23:51.712Z,26.81
2016-10-18T04:24:32.389Z,26.82
2016-10-18T04:25:13.062Z,26.82
2016-10-18T04:25:53.749Z,26.87
2016-10-18T04:26:34.423Z,26.84
2016-10-18T04:27:15.094Z,26.85
2016-10-18T04:27:55.814Z,26.87
2016-10-18T04:28:36.540Z,26.81
2016-10-18T04:29:17.242Z,26.85
2016-10-18T04:29:57.951Z,26.8
2016-10-18T04:30:38.640Z,26.82
2016-10-18T04:31:19.340Z,26.84
2016-10-18T04:31:59.963Z,26.75
2016-10-18T04:32:40.650Z,26.8
2016-10-18T04:33:21.297Z,26.8
2016-10-18T04:34:01.971Z,26.84
2016-10-18T04:34:42.641Z,26.85
2016-10-18T04:35:23.351Z,26.85
2016-10-18T04:36:04.035Z,26.81
2016-10-18T04:36:44.687Z,26.87
2016-10-18T04:37:25.422Z,26.82
2016-10-18T04:38:06.145Z,26.81
2016-10-18T04:38:46.821Z,26.84
2016-10-18T04:39:27.481Z,26.82
2016-10-18T04:40:08.212Z,26.81
2016-10-18T04:40:48.866Z,26.81
2016-10-18T04:41:29.558Z,26.8
2016-10-18T04:42:10.244Z,26.77
2016-10-18T04:42:50.911Z,26.77
2016-10-18T04:43:31.628Z,26.77
2016-10-18T04:44:12.323Z,26.8
2016-10-18T04:44:52.982Z,26.81
2016-10-18T04:45:33.648Z,26.81
2016-10-18T04:46:14.320Z,26.84
2016-10-18T04:46:55.020Z,26.81
2016-10-18T04:47:35.714Z,26.77
2016-10-18T04:48:16.452Z,26.84
2016-10-18T04:48:57.150Z,26.81
2016-10-18T04:49:37.857Z,26.84
2016-10-18T04:50:18.494Z,26.84
2016-10-18T04:50:59.213Z,26.77
2016-10-18T04:51:39.886Z,26.8
2016-10-18T04:52:20.578Z,26.82
2016-10-18T04:53:01.267Z,26.82
2016-10-18T04:53:41.912Z,26.84
2016-10-18T04:54:22.552Z,26.82
2016-10-18T04:55:03.292Z,26.84
2016-10-18T04:55:43.967Z,26.82
2016-10-18T04:56:24.646Z,26.82
2016-10-18T04:57:05.392Z,26.8
2016-10-18T04:57:46.048Z,26.8
2016-10-18T04:58:26.799Z,26.81
2016-10-18T04:59:07.506Z,26.8
2016-10-18T04:59:48.186Z,26.84
2016-10-18T05:00:28.902Z,26.8
2016-10-18T05:01:09.592Z,26.84
2016-10-18T05:01:50.299Z,26.82
2016-10-18T05:02:31.014Z,26.82
2016-10-18T05:03:11.724Z,26.82
2016-10-18T05:03:52.421Z,26.81
2016-10-18T05:04:33.070Z,26.82
2016-10-18T05:05:13.750Z,26.81
2016-10-18T05:05:54.428Z,26.81
2016-10-18T05:06:35.097Z,26.84
2016-10-18T05:07:15.817Z,26.84
2016-10-18T05:07:56.496Z,26.82
2016-10-18T05:08:37.158Z,26.82
2016-10-18T05:09:17.859Z,26.85
2016-10-18T05:09:58.589Z,26.87
2016-10-18T05:10:39.260Z,26.87
2016-10-18T05:11:19.973Z,26.82
2016-10-18T05:12:00.635Z,26.84
2016-10-18T05:12:41.332Z,26.87
2016-10-18T05:13:22.003Z,26.8
2016-10-18T05:14:02.704Z,26.85
2016-10-18T05:14:43.368Z,26.77
2016-10-18T05:15:24.035Z,26.82
2016-10-18T05:16:04.750Z,26.82
2016-10-18T05:16:45.460Z,26.82
2016-10-18T05:17:26.101Z,26.84
2016-10-18T05:18:06.782Z,26.87
2016-10-18T05:18:47.500Z,26.8
2016-10-18T05:19:28.173Z,26.81
2016-10-18T05:20:08.866Z,26.85
2016-10-18T05:20:49.511Z,26.77
2016-10-18T05:21:30.224Z,26.82
2016-10-18T05:22:10.881Z,26.8
2016-10-18T05:22:51.534Z,26.76
2016-10-18T05:23:32.232Z,26.84
2016-10-18T05:24:12.924Z,26.82
2016-10-18T05:24:53.623Z,26.84
2016-10-18T05:25:34.285Z,26.81
2016-10-18T05:26:15.016Z,26.82
2016-10-18T05:26:55.685Z,26.81
2016-10-18T05:27:36.416Z,26.82
2016-10-18T05:28:17.049Z,26.81
2016-10-18T05:28:57.753Z,26.85
2016-10-18T05:29:38.456Z,26.81
2016-10-18T05:30:19.107Z,26.84
2016-10-18T05:30:59.803Z,26.81
2016-10-18T05:31:40.481Z,26.88
2016-10-18T05:32:21.200Z,26.81
2016-10-18T05:33:01.818Z,26.81
2016-10-18T05:33:42.530Z,26.82
2016-10-18T05:34:23.224Z,26.82
2016-10-18T05:35:03.911Z,26.82
2016-10-18T05:35:44.604Z,26.81
2016-10-18T05:36:25.266Z,26.81
2016-10-18T05:37:05.972Z,26.77
2016-10-18T05:37:46.664Z,26.88
2016-10-18T05:38:27.341Z,26.81
2016-10-18T05:39:08.025Z,26.76
2016-10-18T05:39:48.708Z,26.81
2016-10-18T05:40:29.368Z,26.82
2016-10-18T05:41:10.057Z,26.84
2016-10-18T05:41:50.715Z,26.82
2016-10-18T05:42:31.400Z,26.88
2016-10-18T05:43:12.077Z,26.77
2016-10-18T05:43:52.765Z,26.81
2016-10-18T05:44:33.508Z,26.84
2016-10-18T05:45:14.168Z,26.84
2016-10-18T05:45:54.826Z,26.76
2016-10-18T05:46:35.486Z,26.82
2016-10-18T05:47:16.171Z,26.84
2016-10-18T05:47:56.870Z,26.82
2016-10-18T05:48:37.578Z,26.84
2016-10-18T05:49:18.222Z,26.77
2016-10-18T05:49:58.911Z,26.88
2016-10-18T05:50:39.562Z,26.81
2016-10-18T05:51:20.246Z,26.81
2016-10-18T05:52:00.907Z,26.91
2016-10-18T05:52:41.613Z,26.85
2016-10-18T05:53:22.325Z,26.77
2016-10-18T05:54:03.028Z,26.81
2016-10-18T05:54:43.730Z,26.85
2016-10-18T05:55:24.434Z,26.82
2016-10-18T05:56:05.137Z,26.85
2016-10-18T05:56:45.864Z,26.84
2016-10-18T05:57:26.544Z,26.87
2016-10-18T05:58:07.262Z,26.88
2016-10-18T05:58:47.987Z,26.84
2016-10-18T05:59:28.678Z,26.89
2016-10-18T06:00:09.390Z,26.81
2016-10-18T06:00:50.063Z,26.91
2016-10-18T06:01:30.737Z,26.89
2016-10-18T06:02:11.447Z,26.85
2016-10-18T06:02:52.199Z,26.89
2016-10-18T06:03:32.952Z,26.84
2016-10-18T06:04:13.846Z,26.91
2016-10-18T06:04:54.474Z,26.82
2016-10-18T06:05:35.158Z,26.84
2016-10-18T06:06:15.831Z,26.85
2016-10-18T06:06:56.533Z,26.91
2016-10-18T06:07:37.226Z,26.88
2016-10-18T06:08:17.945Z,26.85
2016-10-18T06:08:58.637Z,26.81
2016-10-18T06:09:39.389Z,26.81
2016-10-18T06:10:20.121Z,26.8
2016-10-18T06:11:00.828Z,26.88
2016-10-18T06:11:41.471Z,26.77
2016-10-18T06:12:22.157Z,26.85
2016-10-18T06:13:02.854Z,26.91
2016-10-18T06:13:43.559Z,26.87
2016-10-18T06:14:24.227Z,26.91
2016-10-18T06:15:05.423Z,26.92
2016-10-18T06:15:46.134Z,26.85
2016-10-18T06:16:26.852Z,26.82
2016-10-18T06:17:07.560Z,26.67
2016-10-18T06:17:48.221Z,26.75
2016-10-18T06:18:29.040Z,26.52
2016-10-18T06:19:09.703Z,26.52
2016-10-18T06:19:50.406Z,26.4
2016-10-18T06:20:31.072Z,26.33
2016-10-18T06:21:11.799Z,26.29
2016-10-18T06:21:53.064Z,26.05
2016-10-18T06:22:33.874Z,26.09
2016-10-18T06:23:14.572Z,25.91
2016-10-18T06:23:55.248Z,25.92
2016-10-18T06:24:35.916Z,25.82
2016-10-18T06:25:16.634Z,25.54
2016-10-18T06:25:57.311Z,25.24
2016-10-18T06:26:38.042Z,25
2016-10-18T06:27:18.727Z,24.93
2016-10-18T06:27:59.404Z,24.69
2016-10-18T06:28:40.079Z,24.62
2016-10-18T06:29:20.741Z,24.5
2016-10-18T06:30:01.467Z,24.35
2016-10-18T06:30:42.137Z,24.2
2016-10-18T06:31:22.864Z,24.27
2016-10-18T06:32:03.549Z,24.32
2016-10-18T06:32:44.230Z,24.21
2016-10-18T06:33:24.966Z,24.28
2016-10-18T06:34:05.671Z,24.2
2016-10-18T06:34:46.322Z,24.06
2016-10-18T06:35:27.023Z,23.94
2016-10-18T06:36:07.719Z,24.06
2016-10-18T06:36:48.391Z,24.12
2016-10-18T06:37:29.064Z,24.1
2016-10-18T06:38:09.820Z,24.09
2016-10-18T06:38:50.517Z,24.21
2016-10-18T06:39:31.229Z,24.06
2016-10-18T06:40:11.941Z,23.94
2016-10-18T06:40:52.649Z,23.98
2016-10-18T06:41:33.318Z,23.88
2016-10-18T06:42:14.025Z,23.65
2016-10-18T06:42:54.741Z,23.76
2016-10-18T06:43:35.395Z,23.69
2016-10-18T06:44:16.156Z,23.57
2016-10-18T06:44:56.810Z,23.72
2016-10-18T06:45:37.484Z,23.75
2016-10-18T06:46:18.164Z,23.75
2016-10-18T06:46:58.876Z,23.76
2016-10-18T06:47:39.570Z,23.75
2016-10-18T06:48:20.286Z,23.72
2016-10-18T06:49:01.019Z,23.6
2016-10-18T06:49:41.720Z,23.65
2016-10-18T06:50:22.395Z,23.66
2016-10-18T06:51:03.144Z,23.76
2016-10-18T06:51:43.857Z,23.97
2016-10-18T06:52:24.556Z,24.06
2016-10-18T06:53:06.181Z,24.02
2016-10-18T06:53:46.859Z,24
2016-10-18T06:54:27.558Z,23.75
2016-10-18T06:55:08.246Z,23.63
2016-10-18T06:55:48.943Z,23.72
2016-10-18T06:56:29.632Z,23.66
2016-10-18T06:57:10.316Z,23.79
2016-10-18T06:57:51.029Z,23.91
2016-10-18T06:58:31.694Z,23.93
2016-10-18T06:59:12.329Z,23.79
2016-10-18T06:59:53.734Z,23.84
2016-10-18T07:00:34.433Z,23.9
2016-10-18T07:01:15.100Z,23.78
2016-10-18T07:01:56.586Z,23.79
2016-10-18T07:02:36.469Z,23.94
2016-10-18T07:03:17.223Z,23.76
2016-10-18T07:03:57.920Z,23.79
2016-10-18T07:04:38.634Z,23.75
2016-10-18T07:05:19.319Z,23.79
2016-10-18T07:06:00.026Z,23.76
2016-10-18T07:06:40.715Z,23.85
2016-10-18T07:07:21.466Z,23.83
2016-10-18T07:08:02.175Z,23.85
2016-10-18T07:08:42.911Z,23.94
2016-10-18T07:09:23.576Z,23.94
2016-10-18T07:10:04.317Z,23.9
2016-10-18T07:10:44.990Z,24.12
2016-10-18T07:11:25.674Z,24.05
2016-10-18T07:12:06.357Z,23.94
2016-10-18T07:12:47.065Z,24.06
2016-10-18T07:13:27.732Z,23.93
2016-10-18T07:14:08.459Z,23.94
2016-10-18T07:14:49.183Z,23.95
2016-10-18T07:15:29.894Z,23.91
2016-10-18T07:16:10.546Z,23.88
2016-10-18T07:16:51.245Z,23.75
2016-10-18T07:17:31.933Z,23.69
2016-10-18T07:18:12.672Z,23.85
2016-10-18T07:18:53.327Z,23.73
2016-10-18T07:19:34.065Z,23.54
2016-10-18T07:20:14.847Z,23.63
2016-10-18T07:20:55.499Z,23.65
2016-10-18T07:21:36.174Z,23.84
2016-10-18T07:22:16.889Z,23.63
2016-10-18T07:22:57.578Z,23.63
2016-10-18T07:23:38.256Z,23.61
2016-10-18T07:24:18.986Z,23.54
2016-10-18T07:24:59.685Z,23.5
2016-10-18T07:25:40.379Z,23.6
2016-10-18T07:26:21.069Z,23.57
2016-10-18T07:27:01.827Z,23.58
2016-10-18T07:27:42.479Z,23.43
2016-10-18T07:28:23.161Z,23.48
2016-10-18T07:29:03.800Z,23.43
2016-10-18T07:29:44.480Z,23.39
2016-10-18T07:30:25.183Z,23.4
2016-10-18T07:31:06.837Z,23.48
2016-10-18T07:31:47.488Z,23.43
2016-10-18T07:32:28.189Z,23.58
2016-10-18T07:33:08.863Z,23.51
2016-10-18T07:33:49.562Z,23.55
2016-10-18T07:34:30.247Z,23.46
2016-10-18T07:35:10.919Z,23.38
2016-10-18T07:35:51.630Z,23.28
2016-10-18T07:36:32.374Z,23.28
2016-10-18T07:37:13.092Z,23.28
2016-10-18T07:37:54.718Z,23.42
2016-10-18T07:38:35.466Z,23.5
2016-10-18T07:39:16.312Z,23.69
2016-10-18T07:39:56.928Z,23.68
2016-10-18T07:40:37.602Z,23.55
2016-10-18T07:41:18.340Z,23.7
2016-10-18T07:41:59.034Z,23.63
2016-10-18T07:42:39.733Z,23.58
2016-10-18T07:43:20.383Z,23.54
2016-10-18T07:44:01.107Z,23.63
2016-10-18T07:44:41.784Z,23.51
2016-10-18T07:45:22.482Z,23.58
2016-10-18T07:46:03.176Z,23.55
2016-10-18T07:46:43.830Z,23.6
2016-10-18T07:47:24.564Z,23.68
2016-10-18T07:48:05.241Z,23.63
2016-10-18T07:48:45.965Z,23.78
2016-10-18T07:49:26.623Z,23.79
2016-10-18T07:50:07.356Z,23.78
2016-10-18T07:50:48.044Z,23.7
2016-10-18T07:51:28.765Z,23.69
2016-10-18T07:52:09.453Z,23.47
2016-10-18T07:52:50.147Z,23.36
2016-10-18T07:53:30.786Z,23.5
2016-10-18T07:54:11.463Z,23.51
2016-10-18T07:54:52.183Z,23.53
2016-10-18T07:55:32.846Z,23.54
2016-10-18T07:56:13.515Z,23.65
2016-10-18T07:56:54.202Z,23.75
2016-10-18T07:57:34.908Z,23.69
2016-10-18T07:58:15.601Z,23.53
2016-10-18T07:58:57.101Z,23.46
2016-10-18T07:59:36.988Z,23.42
2016-10-18T08:00:17.662Z,23.36
2016-10-18T08:00:58.370Z,23.16
2016-10-18T08:01:39.604Z,23.16
2016-10-18T08:02:20.316Z,23.19
2016-10-18T08:03:01.011Z,23.2
2016-10-18T08:03:41.747Z,23.25
2016-10-18T08:04:22.443Z,23.38
2016-10-18T08:05:03.162Z,23.42
2016-10-18T08:05:43.871Z,23.42
2016-10-18T08:06:24.521Z,23.31
2016-10-18T08:07:05.198Z,23.38
2016-10-18T08:07:45.885Z,23.15
2016-10-18T08:08:26.570Z,23.27
2016-10-18T08:09:07.253Z,23.36
2016-10-18T08:09:47.969Z,23.46
2016-10-18T08:10:28.687Z,23.42
2016-10-18T08:11:09.365Z,23.53
2016-10-18T08:11:51.570Z,23.51
2016-10-18T08:12:32.144Z,23.31
2016-10-18T08:13:12.842Z,23.38
2016-10-18T08:13:53.527Z,23.36
2016-10-18T08:14:34.232Z,23.28
2016-10-18T08:15:14.958Z,23.51
2016-10-18T08:15:55.631Z,23.48
2016-10-18T08:16:36.373Z,23.55
2016-10-18T08:17:17.150Z,23.58
2016-10-18T08:17:58.057Z,23.55
2016-10-18T08:18:38.775Z,23.53
2016-10-18T08:19:19.529Z,23.39
2016-10-18T08:20:00.236Z,23.5
2016-10-18T08:20:40.940Z,23.54
2016-10-18T08:21:21.606Z,23.66
2016-10-18T08:22:02.288Z,23.73
2016-10-18T08:22:43.060Z,23.79
2016-10-18T08:23:23.742Z,23.79
2016-10-18T08:24:04.444Z,23.94
2016-10-18T08:24:45.279Z,23.91
2016-10-18T08:25:26.003Z,24.06
2016-10-18T08:26:06.732Z,24.02
2016-10-18T08:26:47.506Z,24.06
2016-10-18T08:27:28.468Z,24.1
2016-10-18T08:28:09.973Z,24.09
2016-10-18T08:28:50.644Z,24.2
2016-10-18T08:29:31.393Z,24.18
2016-10-18T08:30:12.128Z,24.21
2016-10-18T08:30:52.852Z,24.3
2016-10-18T08:31:33.502Z,24.34
2016-10-18T08:32:14.184Z,24.31
2016-10-18T08:32:54.858Z,24.32
2016-10-18T08:33:35.573Z,24.39
2016-10-18T08:34:16.245Z,24.34
2016-10-18T08:34:56.893Z,24.4
2016-10-18T08:35:37.597Z,24.37
2016-10-18T08:36:18.358Z,24.47
2016-10-18T08:36:59.022Z,24.42
2016-10-18T08:37:40.391Z,24.49
2016-10-18T08:38:21.069Z,24.49
2016-10-18T08:39:01.847Z,24.53
2016-10-18T08:39:42.501Z,24.5
2016-10-18T08:40:23.265Z,24.6
2016-10-18T08:41:03.968Z,24.58
2016-10-18T08:41:44.665Z,24.62
2016-10-18T08:42:25.372Z,24.62
2016-10-18T08:43:06.160Z,24.69
2016-10-18T08:43:46.867Z,24.62
2016-10-18T08:44:27.600Z,24.62
2016-10-18T08:45:08.289Z,24.76